KPRX/PRX METAR and TAF weather

Enter ICAO airport designator
Station Type Date Time Source
KPRX METAR 2019/04/25 10:03 UTC NOAA

KPRX 251003Z AUTO 23004KT 6SM BR SCT005 BKN037 OVC090 16/16 A2977 RMK AO2


Station Type Date Time Source
KPRX Decoded METAR 2019/04/25 10:03 UTC NOAA

Paris / Cox Field, TX, United States (KPRX) 33-38N 095-27W
Apr 25, 2019 - 06:03 AM EDT / 2019.04.25 1003 UTC
Wind: from the SW (230 degrees) at 5 MPH (4 KT):0
Visibility: 6 mile(s):0
Sky conditions: overcast
Weather: mist
Temperature: 60 F (16 C)
Dew Point: 60 F (16 C)
Relative Humidity: 100%
Pressure (altimeter): 29.77 in. Hg (1008 hPa)
ob: KPRX 251003Z AUTO 23004KT 6SM BR SCT005 BKN037 OVC090 16/16 A2977 RMK AO2
cycle: 10

Station Type Date Time Source
KPRX TAF UTC NOAA

Error!

Example: see airport list